< Typhoon 196735 1967 Season Typhoon 196737 >
Typhoon 196736 (FREDA)
General InformationTrack Information on Google Maps || Disaster Info.ResourceGoogle EarthGE AnimationAtom FeedGeoJSON
Detalied Best Track (Time Zone = UTC)
Year Month Day Hour Lat. Long. Pressure (hPa) Wind (kt) Class Image Chart
1967 11 6 06 12.0 127.3 1006 0 2 -- Chart
1967 11 6 12 10.5 127.9 1008 0 2 -- Chart
1967 11 6 18 10.0 127.5 1008 0 2 -- Chart
1967 11 7 00 9.5 127.2 1006 0 2 -- Chart
1967 11 7 06 9.3 126.0 1000 0 9 -- Chart
1967 11 7 12 9.4 124.3 1000 0 9 -- Chart
1967 11 7 18 9.6 122.0 1000 0 9 -- Chart
1967 11 8 00 9.8 120.8 990 0 9 -- Chart
1967 11 8 06 9.7 118.7 985 0 9 -- Chart
1967 11 8 12 10.0 117.3 985 0 9 -- Chart
1967 11 8 18 10.5 115.6 985 0 9 -- Chart
1967 11 9 00 11.1 114.0 980 0 9 -- Chart
1967 11 9 06 11.6 112.5 974 0 9 -- Chart
1967 11 9 12 12.0 111.4 972 0 9 -- Chart
1967 11 9 18 12.4 110.3 980 0 9 -- Chart
1967 11 10 00 12.7 108.8 990 0 9 -- Chart
1967 11 10 06 12.9 108.0 1000 0 9 -- Chart
1967 11 10 12 13.0 107.0 1004 0 2 -- Chart
1967 11 10 18 13.0 105.8 1006 0 2 -- Chart
1967 11 11 00 13.0 104.4 1006 0 2 -- Chart
1967 11 11 06 13.4 103.2 1008 0 6 -- Chart
1967 11 11 12 13.9 102.0 1008 0 6 -- Chart
1967 11 11 18 15.0 101.0 1010 0 6 -- Chart
Japan Meteorological Agency Best Track Data | Correction Date : 1989-06-01
< Typhoon 196735 1967 Season Typhoon 196737 >

Help